sensor_id;sensor_type;location;lat;lon;timestamp;P1;durP1;ratioP1;P2;durP2;ratioP2
25509;SDS011;13413;52.336;21.200;2022-07-18T00:01:06;4.30;;;2.80;;
25509;SDS011;13413;52.336;21.200;2022-07-18T00:04:25;7.00;;;3.30;;
25509;SDS011;13413;52.336;21.200;2022-07-18T00:07:46;7.80;;;3.50;;
25509;SDS011;13413;52.336;21.200;2022-07-18T00:11:05;8.30;;;3.40;;
25509;SDS011;13413;52.336;21.200;2022-07-18T00:14:24;7.50;;;4.30;;
25509;SDS011;13413;52.336;21.200;2022-07-18T00:17:45;6.10;;;4.10;;
25509;SDS011;13413;52.336;21.200;2022-07-18T00:21:05;7.60;;;3.80;;
25509;SDS011;13413;52.336;21.200;2022-07-18T00:24:24;8.90;;;4.90;;
25509;SDS011;13413;52.336;21.200;2022-07-18T00:27:44;6.80;;;4.10;;
25509;SDS011;13413;52.336;21.200;2022-07-18T00:31:03;7.20;;;4.20;;
25509;SDS011;13413;52.336;21.200;2022-07-18T00:34:23;7.10;;;4.40;;
25509;SDS011;13413;52.336;21.200;2022-07-18T00:37:42;8.70;;;4.10;;
25509;SDS011;13413;52.336;21.200;2022-07-18T00:41:02;6.70;;;4.00;;
25509;SDS011;13413;52.336;21.200;2022-07-18T00:44:23;6.90;;;4.00;;
25509;SDS011;13413;52.336;21.200;2022-07-18T00:47:44;6.60;;;3.60;;
25509;SDS011;13413;52.336;21.200;2022-07-18T00:51:03;7.50;;;4.60;;
25509;SDS011;13413;52.336;21.200;2022-07-18T00:54:24;11.90;;;4.00;;
25509;SDS011;13413;52.336;21.200;2022-07-18T00:57:43;6.10;;;3.60;;
25509;SDS011;13413;52.336;21.200;2022-07-18T01:01:02;7.80;;;3.80;;
25509;SDS011;13413;52.336;21.200;2022-07-18T01:04:22;6.20;;;4.10;;
25509;SDS011;13413;52.336;21.200;2022-07-18T01:07:42;7.70;;;3.60;;
25509;SDS011;13413;52.336;21.200;2022-07-18T01:11:01;7.10;;;3.50;;
25509;SDS011;13413;52.336;21.200;2022-07-18T01:17:40;8.10;;;4.10;;
25509;SDS011;13413;52.336;21.200;2022-07-18T01:20:59;5.60;;;3.70;;
25509;SDS011;13413;52.336;21.200;2022-07-18T01:24:18;5.00;;;3.80;;
25509;SDS011;13413;52.336;21.200;2022-07-18T01:27:37;9.40;;;3.90;;
25509;SDS011;13413;52.336;21.200;2022-07-18T01:30:56;6.40;;;4.20;;
25509;SDS011;13413;52.336;21.200;2022-07-18T01:34:19;5.80;;;3.70;;
25509;SDS011;13413;52.336;21.200;2022-07-18T01:37:40;7.30;;;4.40;;
25509;SDS011;13413;52.336;21.200;2022-07-18T01:40:59;6.40;;;4.10;;
25509;SDS011;13413;52.336;21.200;2022-07-18T01:44:20;7.40;;;4.50;;
25509;SDS011;13413;52.336;21.200;2022-07-18T01:47:40;8.00;;;4.50;;
25509;SDS011;13413;52.336;21.200;2022-07-18T01:51:00;5.30;;;4.00;;
25509;SDS011;13413;52.336;21.200;2022-07-18T01:54:22;7.50;;;4.00;;
25509;SDS011;13413;52.336;21.200;2022-07-18T01:57:42;7.70;;;3.60;;
25509;SDS011;13413;52.336;21.200;2022-07-18T02:01:02;12.50;;;3.90;;
25509;SDS011;13413;52.336;21.200;2022-07-18T02:04:21;4.90;;;3.50;;
25509;SDS011;13413;52.336;21.200;2022-07-18T02:07:41;6.00;;;3.60;;
25509;SDS011;13413;52.336;21.200;2022-07-18T02:11:00;7.60;;;3.90;;
25509;SDS011;13413;52.336;21.200;2022-07-18T02:14:19;10.50;;;3.90;;
25509;SDS011;13413;52.336;21.200;2022-07-18T02:17:39;6.60;;;3.90;;
25509;SDS011;13413;52.336;21.200;2022-07-18T02:21:00;9.80;;;3.90;;
25509;SDS011;13413;52.336;21.200;2022-07-18T02:24:21;8.60;;;4.50;;
25509;SDS011;13413;52.336;21.200;2022-07-18T02:27:40;6.10;;;4.00;;
25509;SDS011;13413;52.336;21.200;2022-07-18T02:31:01;7.10;;;3.80;;
25509;SDS011;13413;52.336;21.200;2022-07-18T02:34:22;7.40;;;3.80;;
25509;SDS011;13413;52.336;21.200;2022-07-18T02:37:42;5.20;;;3.50;;
25509;SDS011;13413;52.336;21.200;2022-07-18T02:41:01;5.20;;;3.60;;
25509;SDS011;13413;52.336;21.200;2022-07-18T02:44:21;7.10;;;3.90;;
25509;SDS011;13413;52.336;21.200;2022-07-18T02:47:41;5.50;;;3.80;;
25509;SDS011;13413;52.336;21.200;2022-07-18T02:51:01;7.10;;;4.30;;
25509;SDS011;13413;52.336;21.200;2022-07-18T02:54:20;7.40;;;3.90;;
25509;SDS011;13413;52.336;21.200;2022-07-18T02:57:41;8.20;;;4.40;;
25509;SDS011;13413;52.336;21.200;2022-07-18T03:01:01;7.10;;;4.50;;
25509;SDS011;13413;52.336;21.200;2022-07-18T03:04:21;6.90;;;4.10;;
25509;SDS011;13413;52.336;21.200;2022-07-18T03:07:41;6.80;;;4.30;;
25509;SDS011;13413;52.336;21.200;2022-07-18T03:11:00;8.30;;;4.80;;
25509;SDS011;13413;52.336;21.200;2022-07-18T03:14:19;6.30;;;4.70;;
25509;SDS011;13413;52.336;21.200;2022-07-18T03:17:40;9.50;;;4.60;;
25509;SDS011;13413;52.336;21.200;2022-07-18T03:20:59;7.90;;;4.90;;
25509;SDS011;13413;52.336;21.200;2022-07-18T03:24:18;10.80;;;4.40;;
25509;SDS011;13413;52.336;21.200;2022-07-18T03:27:37;8.20;;;5.10;;
25509;SDS011;13413;52.336;21.200;2022-07-18T03:30:56;8.20;;;4.80;;
25509;SDS011;13413;52.336;21.200;2022-07-18T03:34:15;8.70;;;4.90;;
25509;SDS011;13413;52.336;21.200;2022-07-18T03:37:36;8.10;;;5.60;;
25509;SDS011;13413;52.336;21.200;2022-07-18T03:40:56;8.30;;;4.80;;
25509;SDS011;13413;52.336;21.200;2022-07-18T03:44:15;17.60;;;5.70;;
25509;SDS011;13413;52.336;21.200;2022-07-18T03:47:35;10.40;;;5.10;;
25509;SDS011;13413;52.336;21.200;2022-07-18T03:50:55;5.80;;;4.90;;
25509;SDS011;13413;52.336;21.200;2022-07-18T03:54:14;8.60;;;4.80;;
25509;SDS011;13413;52.336;21.200;2022-07-18T03:57:33;5.30;;;4.10;;
25509;SDS011;13413;52.336;21.200;2022-07-18T04:00:52;6.60;;;4.70;;
25509;SDS011;13413;52.336;21.200;2022-07-18T04:04:12;8.20;;;5.20;;
25509;SDS011;13413;52.336;21.200;2022-07-18T04:07:32;9.30;;;5.00;;
25509;SDS011;13413;52.336;21.200;2022-07-18T04:10:52;9.80;;;5.40;;
25509;SDS011;13413;52.336;21.200;2022-07-18T04:14:11;6.60;;;4.40;;
25509;SDS011;13413;52.336;21.200;2022-07-18T04:17:30;7.20;;;4.50;;
25509;SDS011;13413;52.336;21.200;2022-07-18T04:20:49;7.90;;;4.90;;
25509;SDS011;13413;52.336;21.200;2022-07-18T04:24:08;5.20;;;4.60;;
25509;SDS011;13413;52.336;21.200;2022-07-18T04:27:28;11.50;;;4.90;;
25509;SDS011;13413;52.336;21.200;2022-07-18T04:30:48;7.50;;;4.40;;
25509;SDS011;13413;52.336;21.200;2022-07-18T04:34:09;6.90;;;4.10;;
25509;SDS011;13413;52.336;21.200;2022-07-18T04:37:30;5.40;;;4.40;;
25509;SDS011;13413;52.336;21.200;2022-07-18T04:40:50;6.10;;;4.30;;
25509;SDS011;13413;52.336;21.200;2022-07-18T04:44:10;7.40;;;5.10;;
25509;SDS011;13413;52.336;21.200;2022-07-18T04:47:30;8.10;;;4.50;;
25509;SDS011;13413;52.336;21.200;2022-07-18T04:50:50;7.50;;;4.40;;
25509;SDS011;13413;52.336;21.200;2022-07-18T04:54:10;8.60;;;4.20;;
25509;SDS011;13413;52.336;21.200;2022-07-18T04:57:29;6.70;;;4.20;;
25509;SDS011;13413;52.336;21.200;2022-07-18T05:00:48;8.90;;;4.60;;
25509;SDS011;13413;52.336;21.200;2022-07-18T05:04:08;6.60;;;4.00;;
25509;SDS011;13413;52.336;21.200;2022-07-18T05:07:28;8.90;;;4.20;;
25509;SDS011;13413;52.336;21.200;2022-07-18T05:10:48;7.00;;;3.50;;
25509;SDS011;13413;52.336;21.200;2022-07-18T05:14:07;8.50;;;3.70;;
25509;SDS011;13413;52.336;21.200;2022-07-18T05:17:26;9.70;;;4.00;;
25509;SDS011;13413;52.336;21.200;2022-07-18T05:20:45;8.40;;;3.50;;
25509;SDS011;13413;52.336;21.200;2022-07-18T05:24:08;10.10;;;3.60;;
25509;SDS011;13413;52.336;21.200;2022-07-18T05:27:27;7.00;;;3.30;;
25509;SDS011;13413;52.336;21.200;2022-07-18T05:30:47;7.30;;;3.30;;
25509;SDS011;13413;52.336;21.200;2022-07-18T05:37:24;7.50;;;3.00;;
25509;SDS011;13413;52.336;21.200;2022-07-18T05:40:44;6.20;;;3.60;;
25509;SDS011;13413;52.336;21.200;2022-07-18T05:44:04;8.00;;;3.10;;
25509;SDS011;13413;52.336;21.200;2022-07-18T05:47:25;10.40;;;3.00;;
25509;SDS011;13413;52.336;21.200;2022-07-18T05:50:45;5.80;;;2.80;;
25509;SDS011;13413;52.336;21.200;2022-07-18T05:54:04;7.60;;;2.50;;
25509;SDS011;13413;52.336;21.200;2022-07-18T05:57:24;10.10;;;5.20;;
25509;SDS011;13413;52.336;21.200;2022-07-18T06:00:44;6.00;;;3.40;;
25509;SDS011;13413;52.336;21.200;2022-07-18T06:04:05;5.00;;;3.40;;
25509;SDS011;13413;52.336;21.200;2022-07-18T06:07:24;10.10;;;3.70;;
25509;SDS011;13413;52.336;21.200;2022-07-18T06:10:44;6.20;;;3.00;;
25509;SDS011;13413;52.336;21.200;2022-07-18T06:14:03;11.40;;;3.20;;
25509;SDS011;13413;52.336;21.200;2022-07-18T06:17:23;6.20;;;3.20;;
25509;SDS011;13413;52.336;21.200;2022-07-18T06:20:41;8.80;;;3.60;;
25509;SDS011;13413;52.336;21.200;2022-07-18T06:24:00;7.90;;;2.70;;
25509;SDS011;13413;52.336;21.200;2022-07-18T06:27:20;5.20;;;2.50;;
25509;SDS011;13413;52.336;21.200;2022-07-18T06:30:40;5.90;;;2.60;;
25509;SDS011;13413;52.336;21.200;2022-07-18T06:33:59;5.00;;;2.70;;
25509;SDS011;13413;52.336;21.200;2022-07-18T06:37:18;3.70;;;2.50;;
25509;SDS011;13413;52.336;21.200;2022-07-18T06:40:39;12.40;;;2.60;;
25509;SDS011;13413;52.336;21.200;2022-07-18T06:43:57;7.10;;;2.60;;
25509;SDS011;13413;52.336;21.200;2022-07-18T06:47:16;6.00;;;2.90;;
25509;SDS011;13413;52.336;21.200;2022-07-18T06:50:48;7.60;;;3.10;;
25509;SDS011;13413;52.336;21.200;2022-07-18T06:54:07;5.20;;;2.30;;
25509;SDS011;13413;52.336;21.200;2022-07-18T06:57:26;5.60;;;2.50;;
25509;SDS011;13413;52.336;21.200;2022-07-18T07:00:46;9.90;;;6.30;;
25509;SDS011;13413;52.336;21.200;2022-07-18T07:04:05;5.60;;;3.00;;
25509;SDS011;13413;52.336;21.200;2022-07-18T07:07:24;5.90;;;3.50;;
25509;SDS011;13413;52.336;21.200;2022-07-18T07:10:43;5.20;;;2.30;;
25509;SDS011;13413;52.336;21.200;2022-07-18T07:14:02;7.30;;;2.80;;
25509;SDS011;13413;52.336;21.200;2022-07-18T07:17:21;9.70;;;2.70;;
25509;SDS011;13413;52.336;21.200;2022-07-18T07:20:41;7.30;;;3.10;;
25509;SDS011;13413;52.336;21.200;2022-07-18T07:23:59;7.40;;;2.60;;
25509;SDS011;13413;52.336;21.200;2022-07-18T07:27:18;6.00;;;2.40;;
25509;SDS011;13413;52.336;21.200;2022-07-18T07:30:37;7.80;;;2.40;;
25509;SDS011;13413;52.336;21.200;2022-07-18T07:33:58;13.40;;;7.40;;
25509;SDS011;13413;52.336;21.200;2022-07-18T07:37:18;7.00;;;4.80;;
25509;SDS011;13413;52.336;21.200;2022-07-18T07:40:38;8.70;;;4.90;;
25509;SDS011;13413;52.336;21.200;2022-07-18T07:43:57;20.80;;;11.50;;
25509;SDS011;13413;52.336;21.200;2022-07-18T07:47:16;8.10;;;3.60;;
25509;SDS011;13413;52.336;21.200;2022-07-18T07:50:36;9.90;;;4.50;;
25509;SDS011;13413;52.336;21.200;2022-07-18T07:53:55;7.00;;;3.90;;
25509;SDS011;13413;52.336;21.200;2022-07-18T07:57:15;7.40;;;3.40;;
25509;SDS011;13413;52.336;21.200;2022-07-18T08:00:35;4.80;;;2.70;;
25509;SDS011;13413;52.336;21.200;2022-07-18T08:03:55;7.10;;;3.10;;
25509;SDS011;13413;52.336;21.200;2022-07-18T08:07:15;6.50;;;3.00;;
25509;SDS011;13413;52.336;21.200;2022-07-18T08:10:36;6.80;;;2.70;;
25509;SDS011;13413;52.336;21.200;2022-07-18T08:13:56;7.20;;;3.10;;
25509;SDS011;13413;52.336;21.200;2022-07-18T08:17:15;6.00;;;3.30;;
25509;SDS011;13413;52.336;21.200;2022-07-18T08:20:34;5.50;;;3.10;;
25509;SDS011;13413;52.336;21.200;2022-07-18T08:23:53;10.50;;;4.20;;
25509;SDS011;13413;52.336;21.200;2022-07-18T08:27:13;8.00;;;3.80;;
25509;SDS011;13413;52.336;21.200;2022-07-18T08:30:32;13.40;;;4.60;;
25509;SDS011;13413;52.336;21.200;2022-07-18T08:33:53;5.80;;;4.10;;
25509;SDS011;13413;52.336;21.200;2022-07-18T08:37:12;6.50;;;4.20;;
25509;SDS011;13413;52.336;21.200;2022-07-18T08:40:31;7.40;;;4.40;;
25509;SDS011;13413;52.336;21.200;2022-07-18T08:43:52;4.30;;;3.90;;
25509;SDS011;13413;52.336;21.200;2022-07-18T08:47:14;7.00;;;3.90;;
25509;SDS011;13413;52.336;21.200;2022-07-18T08:50:37;8.20;;;3.90;;
25509;SDS011;13413;52.336;21.200;2022-07-18T08:53:59;4.50;;;3.40;;
25509;SDS011;13413;52.336;21.200;2022-07-18T08:57:19;6.80;;;3.20;;
25509;SDS011;13413;52.336;21.200;2022-07-18T09:00:39;6.80;;;3.30;;
25509;SDS011;13413;52.336;21.200;2022-07-18T09:03:58;7.10;;;3.30;;
25509;SDS011;13413;52.336;21.200;2022-07-18T09:07:27;6.10;;;3.30;;
25509;SDS011;13413;52.336;21.200;2022-07-18T09:10:50;5.00;;;2.50;;
25509;SDS011;13413;52.336;21.200;2022-07-18T09:14:13;5.80;;;3.00;;
25509;SDS011;13413;52.336;21.200;2022-07-18T09:17:49;7.10;;;2.90;;
25509;SDS011;13413;52.336;21.200;2022-07-18T09:21:08;8.90;;;2.90;;
25509;SDS011;13413;52.336;21.200;2022-07-18T09:24:30;7.40;;;3.20;;
25509;SDS011;13413;52.336;21.200;2022-07-18T09:28:10;8.10;;;3.30;;
25509;SDS011;13413;52.336;21.200;2022-07-18T09:31:30;7.10;;;3.40;;
25509;SDS011;13413;52.336;21.200;2022-07-18T09:34:50;3.40;;;2.40;;
25509;SDS011;13413;52.336;21.200;2022-07-18T09:38:09;6.60;;;3.20;;
25509;SDS011;13413;52.336;21.200;2022-07-18T09:41:31;6.00;;;2.80;;
25509;SDS011;13413;52.336;21.200;2022-07-18T09:44:57;4.70;;;2.70;;
25509;SDS011;13413;52.336;21.200;2022-07-18T09:48:18;9.30;;;3.70;;
25509;SDS011;13413;52.336;21.200;2022-07-18T09:51:39;6.10;;;3.50;;
25509;SDS011;13413;52.336;21.200;2022-07-18T09:55:21;6.60;;;2.50;;
25509;SDS011;13413;52.336;21.200;2022-07-18T09:58:41;3.60;;;2.40;;
25509;SDS011;13413;52.336;21.200;2022-07-18T10:02:07;5.20;;;3.20;;
25509;SDS011;13413;52.336;21.200;2022-07-18T10:05:27;4.70;;;2.70;;
25509;SDS011;13413;52.336;21.200;2022-07-18T10:08:48;5.00;;;3.00;;
25509;SDS011;13413;52.336;21.200;2022-07-18T10:12:08;8.00;;;3.10;;
25509;SDS011;13413;52.336;21.200;2022-07-18T10:15:31;4.10;;;2.90;;
25509;SDS011;13413;52.336;21.200;2022-07-18T10:18:53;6.00;;;2.80;;
25509;SDS011;13413;52.336;21.200;2022-07-18T10:22:13;3.70;;;2.70;;
25509;SDS011;13413;52.336;21.200;2022-07-18T10:25:34;6.60;;;2.90;;
25509;SDS011;13413;52.336;21.200;2022-07-18T10:32:35;6.30;;;2.90;;
25509;SDS011;13413;52.336;21.200;2022-07-18T10:36:03;6.60;;;2.90;;
25509;SDS011;13413;52.336;21.200;2022-07-18T10:39:32;8.20;;;3.20;;
25509;SDS011;13413;52.336;21.200;2022-07-18T10:50:23;5.20;;;2.80;;
25509;SDS011;13413;52.336;21.200;2022-07-18T10:54:05;7.30;;;2.60;;
25509;SDS011;13413;52.336;21.200;2022-07-18T10:57:27;3.30;;;2.20;;
25509;SDS011;13413;52.336;21.200;2022-07-18T11:00:48;6.40;;;2.80;;
25509;SDS011;13413;52.336;21.200;2022-07-18T11:04:22;5.10;;;2.50;;
25509;SDS011;13413;52.336;21.200;2022-07-18T11:07:43;4.40;;;2.60;;
25509;SDS011;13413;52.336;21.200;2022-07-18T11:11:36;4.80;;;2.40;;
25509;SDS011;13413;52.336;21.200;2022-07-18T11:15:16;5.50;;;3.10;;
25509;SDS011;13413;52.336;21.200;2022-07-18T11:22:26;7.30;;;2.80;;
25509;SDS011;13413;52.336;21.200;2022-07-18T11:25:45;5.40;;;2.40;;
25509;SDS011;13413;52.336;21.200;2022-07-18T11:29:09;7.30;;;2.50;;
25509;SDS011;13413;52.336;21.200;2022-07-18T11:32:31;4.60;;;2.80;;
25509;SDS011;13413;52.336;21.200;2022-07-18T11:35:51;7.70;;;3.10;;
25509;SDS011;13413;52.336;21.200;2022-07-18T11:39:28;4.30;;;2.90;;
25509;SDS011;13413;52.336;21.200;2022-07-18T11:42:49;7.10;;;2.80;;
25509;SDS011;13413;52.336;21.200;2022-07-18T11:46:11;7.10;;;3.00;;
25509;SDS011;13413;52.336;21.200;2022-07-18T11:49:32;6.20;;;2.80;;
25509;SDS011;13413;52.336;21.200;2022-07-18T11:56:30;4.20;;;2.90;;
25509;SDS011;13413;52.336;21.200;2022-07-18T11:59:49;10.00;;;2.70;;
25509;SDS011;13413;52.336;21.200;2022-07-18T12:03:09;8.00;;;2.90;;
25509;SDS011;13413;52.336;21.200;2022-07-18T12:06:43;6.90;;;3.00;;
25509;SDS011;13413;52.336;21.200;2022-07-18T12:10:15;3.00;;;2.50;;
25509;SDS011;13413;52.336;21.200;2022-07-18T12:13:43;4.30;;;2.10;;
25509;SDS011;13413;52.336;21.200;2022-07-18T12:17:04;8.90;;;2.70;;
25509;SDS011;13413;52.336;21.200;2022-07-18T12:20:24;4.80;;;2.50;;
25509;SDS011;13413;52.336;21.200;2022-07-18T12:23:43;4.10;;;2.70;;
25509;SDS011;13413;52.336;21.200;2022-07-18T12:27:13;2.70;;;2.20;;
25509;SDS011;13413;52.336;21.200;2022-07-18T12:30:36;4.30;;;2.70;;
25509;SDS011;13413;52.336;21.200;2022-07-18T12:34:08;8.60;;;4.30;;
25509;SDS011;13413;52.336;21.200;2022-07-18T12:37:30;7.30;;;2.90;;
25509;SDS011;13413;52.336;21.200;2022-07-18T12:40:49;4.90;;;2.70;;
25509;SDS011;13413;52.336;21.200;2022-07-18T12:44:14;3.90;;;2.30;;
25509;SDS011;13413;52.336;21.200;2022-07-18T12:47:34;5.00;;;2.90;;
25509;SDS011;13413;52.336;21.200;2022-07-18T12:50:58;3.70;;;2.90;;
25509;SDS011;13413;52.336;21.200;2022-07-18T12:54:19;2.60;;;2.20;;
25509;SDS011;13413;52.336;21.200;2022-07-18T12:57:40;2.80;;;2.20;;
25509;SDS011;13413;52.336;21.200;2022-07-18T13:00:59;4.20;;;2.60;;
25509;SDS011;13413;52.336;21.200;2022-07-18T13:04:19;3.80;;;2.80;;
25509;SDS011;13413;52.336;21.200;2022-07-18T13:07:38;3.20;;;2.50;;
25509;SDS011;13413;52.336;21.200;2022-07-18T13:10:58;7.20;;;3.20;;
25509;SDS011;13413;52.336;21.200;2022-07-18T13:14:18;8.90;;;3.00;;
25509;SDS011;13413;52.336;21.200;2022-07-18T13:17:38;6.50;;;2.30;;
25509;SDS011;13413;52.336;21.200;2022-07-18T13:20:57;5.10;;;2.50;;
25509;SDS011;13413;52.336;21.200;2022-07-18T13:24:16;4.40;;;2.30;;
25509;SDS011;13413;52.336;21.200;2022-07-18T13:27:36;4.90;;;2.30;;
25509;SDS011;13413;52.336;21.200;2022-07-18T13:30:56;8.30;;;2.80;;
25509;SDS011;13413;52.336;21.200;2022-07-18T13:34:17;3.40;;;2.10;;
25509;SDS011;13413;52.336;21.200;2022-07-18T13:37:37;4.80;;;2.10;;
25509;SDS011;13413;52.336;21.200;2022-07-18T13:40:56;4.50;;;2.70;;
25509;SDS011;13413;52.336;21.200;2022-07-18T13:44:15;8.20;;;2.20;;
25509;SDS011;13413;52.336;21.200;2022-07-18T13:47:35;3.50;;;2.60;;
25509;SDS011;13413;52.336;21.200;2022-07-18T13:50:55;3.10;;;2.10;;
25509;SDS011;13413;52.336;21.200;2022-07-18T13:54:14;5.00;;;4.50;;
25509;SDS011;13413;52.336;21.200;2022-07-18T13:57:35;6.20;;;4.70;;
25509;SDS011;13413;52.336;21.200;2022-07-18T14:00:54;3.90;;;2.50;;
25509;SDS011;13413;52.336;21.200;2022-07-18T14:04:13;3.60;;;2.40;;
25509;SDS011;13413;52.336;21.200;2022-07-18T14:07:32;3.80;;;2.40;;
25509;SDS011;13413;52.336;21.200;2022-07-18T14:11:06;12.80;;;4.20;;
25509;SDS011;13413;52.336;21.200;2022-07-18T14:14:27;3.60;;;2.30;;
25509;SDS011;13413;52.336;21.200;2022-07-18T14:17:46;3.10;;;1.90;;
25509;SDS011;13413;52.336;21.200;2022-07-18T14:21:05;5.10;;;2.20;;
25509;SDS011;13413;52.336;21.200;2022-07-18T14:24:24;3.40;;;2.00;;
25509;SDS011;13413;52.336;21.200;2022-07-18T14:27:43;8.40;;;1.90;;
25509;SDS011;13413;52.336;21.200;2022-07-18T14:31:03;2.70;;;2.10;;
25509;SDS011;13413;52.336;21.200;2022-07-18T14:34:22;6.70;;;2.40;;
25509;SDS011;13413;52.336;21.200;2022-07-18T14:37:42;5.50;;;2.30;;
25509;SDS011;13413;52.336;21.200;2022-07-18T14:41:01;13.80;;;2.90;;
25509;SDS011;13413;52.336;21.200;2022-07-18T14:44:20;2.90;;;2.40;;
25509;SDS011;13413;52.336;21.200;2022-07-18T14:47:40;4.20;;;2.50;;
25509;SDS011;13413;52.336;21.200;2022-07-18T14:51:01;6.70;;;2.60;;
25509;SDS011;13413;52.336;21.200;2022-07-18T14:54:20;5.60;;;2.50;;
25509;SDS011;13413;52.336;21.200;2022-07-18T14:57:39;6.00;;;2.40;;
25509;SDS011;13413;52.336;21.200;2022-07-18T15:00:58;4.50;;;2.80;;
25509;SDS011;13413;52.336;21.200;2022-07-18T15:04:18;4.80;;;2.80;;
25509;SDS011;13413;52.336;21.200;2022-07-18T15:07:38;4.40;;;2.30;;
25509;SDS011;13413;52.336;21.200;2022-07-18T15:10:57;2.80;;;2.20;;
25509;SDS011;13413;52.336;21.200;2022-07-18T15:14:16;3.60;;;2.50;;
25509;SDS011;13413;52.336;21.200;2022-07-18T15:17:36;2.40;;;2.20;;
25509;SDS011;13413;52.336;21.200;2022-07-18T15:20:55;7.60;;;2.80;;
25509;SDS011;13413;52.336;21.200;2022-07-18T15:24:15;3.90;;;2.30;;
25509;SDS011;13413;52.336;21.200;2022-07-18T15:27:35;3.00;;;2.70;;
25509;SDS011;13413;52.336;21.200;2022-07-18T15:30:55;3.70;;;2.10;;
25509;SDS011;13413;52.336;21.200;2022-07-18T15:34:14;6.10;;;2.20;;
25509;SDS011;13413;52.336;21.200;2022-07-18T15:37:33;5.20;;;2.70;;
25509;SDS011;13413;52.336;21.200;2022-07-18T15:40:53;9.50;;;2.30;;
25509;SDS011;13413;52.336;21.200;2022-07-18T15:44:13;6.00;;;2.40;;
25509;SDS011;13413;52.336;21.200;2022-07-18T15:47:32;3.90;;;2.40;;
25509;SDS011;13413;52.336;21.200;2022-07-18T15:50:51;3.10;;;2.30;;
25509;SDS011;13413;52.336;21.200;2022-07-18T15:54:12;4.20;;;2.40;;
25509;SDS011;13413;52.336;21.200;2022-07-18T15:57:31;7.00;;;2.50;;
25509;SDS011;13413;52.336;21.200;2022-07-18T16:00:52;3.60;;;2.40;;
25509;SDS011;13413;52.336;21.200;2022-07-18T16:04:12;6.00;;;2.10;;
25509;SDS011;13413;52.336;21.200;2022-07-18T16:07:32;4.20;;;2.10;;
25509;SDS011;13413;52.336;21.200;2022-07-18T16:10:51;3.00;;;2.10;;
25509;SDS011;13413;52.336;21.200;2022-07-18T16:14:12;7.00;;;3.00;;
25509;SDS011;13413;52.336;21.200;2022-07-18T16:17:32;4.20;;;2.10;;
25509;SDS011;13413;52.336;21.200;2022-07-18T16:20:52;5.90;;;2.40;;
25509;SDS011;13413;52.336;21.200;2022-07-18T16:24:12;6.10;;;2.20;;
25509;SDS011;13413;52.336;21.200;2022-07-18T16:27:31;2.20;;;2.00;;
25509;SDS011;13413;52.336;21.200;2022-07-18T16:30:51;3.40;;;2.40;;
25509;SDS011;13413;52.336;21.200;2022-07-18T16:34:11;2.40;;;2.20;;
25509;SDS011;13413;52.336;21.200;2022-07-18T16:37:30;3.30;;;2.40;;
25509;SDS011;13413;52.336;21.200;2022-07-18T16:40:51;5.10;;;2.20;;
25509;SDS011;13413;52.336;21.200;2022-07-18T16:44:11;4.90;;;2.50;;
25509;SDS011;13413;52.336;21.200;2022-07-18T16:47:33;6.00;;;2.80;;
25509;SDS011;13413;52.336;21.200;2022-07-18T16:50:55;6.00;;;2.30;;
25509;SDS011;13413;52.336;21.200;2022-07-18T16:54:16;6.20;;;2.60;;
25509;SDS011;13413;52.336;21.200;2022-07-18T16:57:36;4.00;;;2.20;;
25509;SDS011;13413;52.336;21.200;2022-07-18T17:00:57;5.10;;;2.60;;
25509;SDS011;13413;52.336;21.200;2022-07-18T17:04:18;5.10;;;2.80;;
25509;SDS011;13413;52.336;21.200;2022-07-18T17:07:38;3.50;;;2.30;;
25509;SDS011;13413;52.336;21.200;2022-07-18T17:10:59;6.30;;;2.70;;
25509;SDS011;13413;52.336;21.200;2022-07-18T17:14:21;4.90;;;2.30;;
25509;SDS011;13413;52.336;21.200;2022-07-18T17:17:42;3.90;;;2.20;;
25509;SDS011;13413;52.336;21.200;2022-07-18T17:21:04;6.10;;;2.20;;
25509;SDS011;13413;52.336;21.200;2022-07-18T17:24:25;5.80;;;2.20;;
25509;SDS011;13413;52.336;21.200;2022-07-18T17:27:46;5.30;;;2.80;;
25509;SDS011;13413;52.336;21.200;2022-07-18T17:31:06;8.40;;;2.70;;
25509;SDS011;13413;52.336;21.200;2022-07-18T17:34:29;3.30;;;2.60;;
25509;SDS011;13413;52.336;21.200;2022-07-18T17:37:49;4.40;;;2.80;;
25509;SDS011;13413;52.336;21.200;2022-07-18T17:44:44;6.40;;;3.20;;
25509;SDS011;13413;52.336;21.200;2022-07-18T17:48:05;6.00;;;2.80;;
25509;SDS011;13413;52.336;21.200;2022-07-18T17:51:25;5.70;;;2.50;;
25509;SDS011;13413;52.336;21.200;2022-07-18T17:54:44;5.60;;;2.50;;
25509;SDS011;13413;52.336;21.200;2022-07-18T17:58:06;4.30;;;2.50;;
25509;SDS011;13413;52.336;21.200;2022-07-18T18:01:25;4.90;;;2.30;;
25509;SDS011;13413;52.336;21.200;2022-07-18T18:04:44;8.50;;;2.80;;
25509;SDS011;13413;52.336;21.200;2022-07-18T18:08:03;4.80;;;2.50;;
25509;SDS011;13413;52.336;21.200;2022-07-18T18:11:22;4.30;;;2.70;;
25509;SDS011;13413;52.336;21.200;2022-07-18T18:14:43;5.30;;;2.80;;
25509;SDS011;13413;52.336;21.200;2022-07-18T18:18:04;8.60;;;3.00;;
25509;SDS011;13413;52.336;21.200;2022-07-18T18:21:24;6.60;;;2.70;;
25509;SDS011;13413;52.336;21.200;2022-07-18T18:24:44;10.10;;;3.10;;
25509;SDS011;13413;52.336;21.200;2022-07-18T18:28:05;5.10;;;2.60;;
25509;SDS011;13413;52.336;21.200;2022-07-18T18:31:25;9.20;;;3.30;;
25509;SDS011;13413;52.336;21.200;2022-07-18T18:34:44;7.30;;;3.00;;
25509;SDS011;13413;52.336;21.200;2022-07-18T18:38:03;22.60;;;3.70;;
25509;SDS011;13413;52.336;21.200;2022-07-18T18:41:23;8.00;;;2.80;;
25509;SDS011;13413;52.336;21.200;2022-07-18T18:44:42;7.30;;;3.00;;
25509;SDS011;13413;52.336;21.200;2022-07-18T18:48:04;8.70;;;3.20;;
25509;SDS011;13413;52.336;21.200;2022-07-18T18:51:23;7.20;;;3.10;;
25509;SDS011;13413;52.336;21.200;2022-07-18T18:54:43;5.00;;;3.20;;
25509;SDS011;13413;52.336;21.200;2022-07-18T18:58:03;8.20;;;3.60;;
25509;SDS011;13413;52.336;21.200;2022-07-18T19:01:22;6.30;;;3.30;;
25509;SDS011;13413;52.336;21.200;2022-07-18T19:04:42;6.00;;;3.10;;
25509;SDS011;13413;52.336;21.200;2022-07-18T19:08:03;5.90;;;3.60;;
25509;SDS011;13413;52.336;21.200;2022-07-18T19:11:24;7.20;;;3.90;;
25509;SDS011;13413;52.336;21.200;2022-07-18T19:14:52;8.10;;;4.70;;
25509;SDS011;13413;52.336;21.200;2022-07-18T19:18:10;7.70;;;4.00;;
25509;SDS011;13413;52.336;21.200;2022-07-18T19:21:31;9.70;;;3.90;;
25509;SDS011;13413;52.336;21.200;2022-07-18T19:24:49;6.90;;;4.40;;
25509;SDS011;13413;52.336;21.200;2022-07-18T19:28:10;7.90;;;4.30;;
25509;SDS011;13413;52.336;21.200;2022-07-18T19:34:50;11.80;;;3.30;;
25509;SDS011;13413;52.336;21.200;2022-07-18T19:38:09;5.60;;;3.30;;
25509;SDS011;13413;52.336;21.200;2022-07-18T19:41:29;7.60;;;4.30;;
25509;SDS011;13413;52.336;21.200;2022-07-18T19:44:52;7.00;;;3.80;;
25509;SDS011;13413;52.336;21.200;2022-07-18T19:48:14;9.80;;;5.10;;
25509;SDS011;13413;52.336;21.200;2022-07-18T19:51:35;14.00;;;5.80;;
25509;SDS011;13413;52.336;21.200;2022-07-18T19:54:54;19.50;;;9.10;;
25509;SDS011;13413;52.336;21.200;2022-07-18T19:58:13;16.00;;;9.80;;
25509;SDS011;13413;52.336;21.200;2022-07-18T20:01:33;12.30;;;9.70;;
25509;SDS011;13413;52.336;21.200;2022-07-18T20:04:56;17.80;;;12.70;;
25509;SDS011;13413;52.336;21.200;2022-07-18T20:08:16;17.30;;;9.80;;
25509;SDS011;13413;52.336;21.200;2022-07-18T20:11:35;14.50;;;9.50;;
25509;SDS011;13413;52.336;21.200;2022-07-18T20:14:54;20.00;;;9.70;;
25509;SDS011;13413;52.336;21.200;2022-07-18T20:18:14;14.50;;;8.60;;
25509;SDS011;13413;52.336;21.200;2022-07-18T20:21:33;16.10;;;11.50;;